CheckWX is a tool to help pilots better visualize weather data.  It is not intended as a substitute for an official pre-flight weather briefing.

14:02:37 UTC

KMML METAR
Southwest Minnesota Regional Marshall / Ryan Field Airport
Marshall, Minnesota, USA
Current

7 mins ago

KMML 211356Z AUTO 19015G18KT 10SM FEW029 22/20 A2972 RMK AO2 TSE1258B00E26 SLP058 T02170200
Observed
Sep-21 @ 13:56 UTC
Wind
  • 190° at 15 KTS
  • Gusting to 18 KTS
Visibility
10 SM
Flight Rules
VFR
Cloud Levels
  • Few at 2,900' AGL
Temperature
22°C / 72°F
Dewpoint
20°C / 68°F
Humidity
88%
Altimeter
29.72" Hg
Pressure
1006.42 hPa
Previous

19 mins ago

KMML 211344Z AUTO 19009KT 10SM FEW013 SCT034 BKN042 21/19 A2973 RMK AO2 LTG DSNT E AND SE TSE1258B00E26
Observed
Sep-21 @ 13:44 UTC
Wind
  • 190° at 9 KTS
Visibility
10 SM
Flight Rules
VFR
Cloud Levels
  • Few at 1,300' AGL
  • Scattered at 3,400' AGL
  • Broken at 4,200' AGL
Temperature
21°C / 70°F
Dewpoint
19°C / 66°F
Humidity
88%
Altimeter
29.73" Hg
Pressure
1006.82 hPa
Previous

36 mins ago

KMML 211327Z AUTO 20008KT 10SM SCT011 BKN015 OVC041 22/19 A2975 RMK AO2 LTG DSNT E AND SE TSE1258B00E26
Observed
Sep-21 @ 13:27 UTC
Wind
  • 200° at 8 KTS
Visibility
10 SM
Flight Rules
MVFR
Cloud Levels
  • Scattered at 1,100' AGL
  • Broken at 1,500' AGL
  • Overcast at 4,100' AGL
Temperature
22°C / 72°F
Dewpoint
19°C / 66°F
Humidity
83%
Altimeter
29.75" Hg
Pressure
1007.42 hPa